createdAt,value
2023-05-27T00:00:50.889Z,101124.34
2023-05-27T00:03:29.586Z,101126.30
2023-05-27T00:05:58.628Z,101123.58
2023-05-27T00:08:27.385Z,101126.39
2023-05-27T00:10:56.062Z,101120.39
2023-05-27T00:13:24.751Z,101120.98
2023-05-27T00:15:53.898Z,101124.77
2023-05-27T00:18:23.261Z,101124.38
2023-05-27T00:20:52.180Z,101126.31
2023-05-27T00:23:21.571Z,101128.33
2023-05-27T00:25:50.399Z,101127.02
2023-05-27T00:28:19.940Z,101130.39
2023-05-27T00:30:48.726Z,101127.80
2023-05-27T00:33:17.628Z,101126.55
2023-05-27T00:35:46.409Z,101124.05
2023-05-27T00:38:15.131Z,101124.04
2023-05-27T00:40:44.911Z,101129.26
2023-05-27T00:43:13.936Z,101131.32
2023-05-27T00:45:42.604Z,101129.29
2023-05-27T00:48:12.182Z,101131.77
2023-05-27T00:50:41.387Z,101129.94
2023-05-27T00:53:10.398Z,101128.81
2023-05-27T00:55:39.268Z,101131.74
2023-05-27T00:58:10.833Z,101128.78
2023-05-27T01:00:40.238Z,101130.64
2023-05-27T01:03:09.481Z,101131.16
2023-05-27T01:05:39.981Z,101125.11
2023-05-27T01:08:21.863Z,101123.15
2023-05-27T01:10:53.934Z,101123.48
2023-05-27T01:13:37.250Z,101120.73
2023-05-27T01:16:12.628Z,101120.29
2023-05-27T01:18:43.346Z,101123.27
2023-05-27T01:21:20.563Z,101121.40
2023-05-27T01:23:50.461Z,101121.61
2023-05-27T01:26:19.308Z,101123.48
2023-05-27T01:28:48.300Z,101128.89
2023-05-27T01:31:37.627Z,101129.44
2023-05-27T01:34:11.579Z,101134.82
2023-05-27T01:36:48.991Z,101137.18
2023-05-27T01:39:18.300Z,101139.69
2023-05-27T01:41:47.495Z,101142.98
2023-05-27T01:44:18.608Z,101145.64
2023-05-27T01:46:48.093Z,101140.80
2023-05-27T01:49:17.005Z,101141.50
2023-05-27T01:51:45.689Z,101139.63
2023-05-27T01:54:14.377Z,101139.61
2023-05-27T01:56:43.166Z,101140.77
2023-05-27T01:59:11.843Z,101140.80
2023-05-27T02:01:42.575Z,101141.80
2023-05-27T02:04:11.802Z,101139.30
2023-05-27T02:06:42.130Z,101138.57
2023-05-27T02:09:14.281Z,101141.23
2023-05-27T02:11:45.133Z,101138.52
2023-05-27T02:14:13.795Z,101139.33
2023-05-27T02:16:42.783Z,101138.06
2023-05-27T02:19:11.991Z,101139.17
2023-05-27T02:21:40.904Z,101143.94
2023-05-27T02:24:09.650Z,101148.35
2023-05-27T02:26:39.491Z,101147.66
2023-05-27T02:29:10.332Z,101147.96
2023-05-27T02:31:39.289Z,101146.16
2023-05-27T02:34:08.616Z,101142.65
2023-05-27T02:36:37.493Z,101141.11
2023-05-27T02:39:07.646Z,101144.34
2023-05-27T02:41:36.719Z,101149.25
2023-05-27T02:44:07.145Z,101144.86
2023-05-27T02:46:35.759Z,101147.17
2023-05-27T02:49:04.849Z,101145.20
2023-05-27T02:51:33.601Z,101149.67
2023-05-27T02:54:02.410Z,101149.09
2023-05-27T02:56:31.187Z,101151.73
2023-05-27T02:58:59.968Z,101154.10
2023-05-27T03:01:28.772Z,101157.65
2023-05-27T03:03:57.565Z,101160.63
2023-05-27T03:06:26.336Z,101158.42
2023-05-27T03:08:55.049Z,101159.09
2023-05-27T03:11:23.694Z,101162.27
2023-05-27T03:13:53.226Z,101166.34
2023-05-27T03:16:22.125Z,101163.62
2023-05-27T03:18:50.936Z,101162.92
2023-05-27T03:21:20.176Z,101165.30
2023-05-27T03:23:49.583Z,101170.16
2023-05-27T03:26:18.169Z,101169.71
2023-05-27T03:28:47.566Z,101172.09
2023-05-27T03:31:16.175Z,101178.34
2023-05-27T03:33:51.735Z,101178.84
2023-05-27T03:36:22.972Z,101180.61
2023-05-27T03:38:51.837Z,101183.54
2023-05-27T03:41:20.945Z,101187.35
2023-05-27T03:43:49.952Z,101184.68
2023-05-27T03:46:19.269Z,101185.75
2023-05-27T03:48:48.142Z,101189.38
2023-05-27T03:51:17.112Z,101187.88
2023-05-27T03:53:47.151Z,101189.45
2023-05-27T03:56:17.137Z,101191.16
2023-05-27T03:58:47.599Z,101189.47
2023-05-27T04:01:16.270Z,101193.13
2023-05-27T04:03:46.116Z,101195.38
2023-05-27T04:06:15.295Z,101203.22
2023-05-27T04:08:44.268Z,101208.32
2023-05-27T04:11:14.210Z,101207.28
2023-05-27T04:13:43.066Z,101206.41
2023-05-27T04:16:12.284Z,101209.17
2023-05-27T04:18:41.368Z,101209.80
2023-05-27T04:21:10.256Z,101208.36
2023-05-27T04:23:39.035Z,101212.18
2023-05-27T04:26:08.263Z,101216.23
2023-05-27T04:28:40.804Z,101207.71
2023-05-27T04:31:13.854Z,101213.05
2023-05-27T04:33:48.881Z,101215.02
2023-05-27T04:36:18.671Z,101214.23
2023-05-27T04:39:05.062Z,101213.37
2023-05-27T04:41:35.578Z,101217.02
2023-05-27T04:44:15.660Z,101215.42
2023-05-27T04:46:46.382Z,101217.08
2023-05-27T04:49:15.382Z,101216.95
2023-05-27T04:51:46.399Z,101218.94
2023-05-27T04:54:15.584Z,101217.13
2023-05-27T04:56:45.504Z,101219.39
2023-05-27T04:59:21.485Z,101219.87
2023-05-27T05:02:19.449Z,101222.06
2023-05-27T05:04:56.010Z,101218.09
2023-05-27T05:07:25.404Z,101217.04
2023-05-27T05:09:54.833Z,101214.39
2023-05-27T05:12:29.636Z,101217.35
2023-05-27T05:14:59.670Z,101219.30
2023-05-27T05:17:28.785Z,101220.38
2023-05-27T05:19:58.152Z,101223.13
2023-05-27T05:22:28.876Z,101215.46
2023-05-27T05:24:58.638Z,101214.81
2023-05-27T05:27:32.822Z,101214.93
2023-05-27T05:30:02.719Z,101217.64
2023-05-27T05:32:31.736Z,101220.29
2023-05-27T05:35:01.058Z,101221.59
2023-05-27T05:37:30.751Z,101220.52
2023-05-27T05:39:59.831Z,101222.17
2023-05-27T05:42:28.864Z,101223.29
2023-05-27T05:44:58.244Z,101227.27
2023-05-27T05:47:27.163Z,101225.10
2023-05-27T05:50:04.815Z,101227.65
2023-05-27T05:52:34.461Z,101230.09
2023-05-27T05:55:04.121Z,101232.82
2023-05-27T05:57:36.124Z,101236.58
2023-05-27T06:00:07.237Z,101235.95
2023-05-27T06:02:48.130Z,101233.46
2023-05-27T06:05:37.067Z,101235.18
2023-05-27T06:08:06.669Z,101231.73
2023-05-27T06:10:36.629Z,101231.50
2023-05-27T06:13:06.998Z,101238.11
2023-05-27T06:15:36.096Z,101240.15
2023-05-27T06:18:06.597Z,101244.04
2023-05-27T06:20:35.451Z,101239.47
2023-05-27T06:23:04.754Z,101242.08
2023-05-27T06:26:02.606Z,101240.27
2023-05-27T06:28:34.144Z,101247.45
2023-05-27T06:31:04.061Z,101244.98
2023-05-27T06:33:33.789Z,101244.38
2023-05-27T06:36:02.776Z,101247.48
2023-05-27T06:38:31.773Z,101246.67
2023-05-27T06:41:00.980Z,101246.02
2023-05-27T06:43:30.314Z,101233.55
2023-05-27T06:46:21.715Z,101235.35
2023-05-27T06:49:11.138Z,101239.62
2023-05-27T06:51:39.929Z,101242.80
2023-05-27T06:54:08.930Z,101249.23
2023-05-27T06:56:43.257Z,101247.97
2023-05-27T06:59:31.412Z,101241.55
2023-05-27T07:02:00.480Z,101244.13
2023-05-27T07:04:30.109Z,101239.66
2023-05-27T07:07:01.755Z,101240.69
2023-05-27T07:09:31.059Z,101240.48
2023-05-27T07:12:03.569Z,101242.13
2023-05-27T07:14:52.793Z,101241.16
2023-05-27T07:17:22.081Z,101241.19
2023-05-27T07:19:51.279Z,101236.95
2023-05-27T07:22:22.016Z,101235.85
2023-05-27T07:24:51.021Z,101239.04
2023-05-27T07:27:22.991Z,101239.05
2023-05-27T07:29:57.410Z,101236.81
2023-05-27T07:32:49.192Z,101232.16
2023-05-27T07:35:19.030Z,101229.77
2023-05-27T07:37:48.024Z,101224.34
2023-05-27T07:40:18.765Z,101225.06
2023-05-27T07:42:47.963Z,101222.69
2023-05-27T07:45:17.535Z,101224.48
2023-05-27T07:47:48.159Z,101214.61
2023-05-27T07:50:18.323Z,101218.02
2023-05-27T07:52:56.329Z,101212.93
2023-05-27T07:55:28.483Z,101215.52
2023-05-27T07:57:58.334Z,101211.64
2023-05-27T08:00:32.472Z,101213.41
2023-05-27T08:03:03.004Z,101206.41
2023-05-27T08:06:07.011Z,101211.14
2023-05-27T08:09:10.049Z,101205.34
2023-05-27T08:12:03.967Z,101203.81
2023-05-27T08:15:13.013Z,101197.61
2023-05-27T08:18:13.049Z,101202.80
2023-05-27T08:20:53.858Z,101202.91
2023-05-27T08:24:00.184Z,101191.55
2023-05-27T08:26:50.970Z,101195.79
2023-05-27T08:29:40.112Z,101197.81
2023-05-27T08:32:43.742Z,101197.92
2023-05-27T08:35:15.309Z,101195.39
2023-05-27T08:37:46.182Z,101187.35
2023-05-27T08:40:26.329Z,101181.83
2023-05-27T08:43:01.693Z,101182.00
2023-05-27T08:45:37.189Z,101184.95
2023-05-27T08:48:14.590Z,101185.21
2023-05-27T08:50:46.080Z,101181.45
2023-05-27T08:53:19.753Z,101179.80
2023-05-27T08:55:53.375Z,101181.06
2023-05-27T08:58:26.330Z,101182.87
2023-05-27T09:00:57.913Z,101182.19
2023-05-27T09:03:29.420Z,101177.25
2023-05-27T09:06:03.730Z,101174.89
2023-05-27T09:08:49.642Z,101173.30
2023-05-27T09:11:26.948Z,101170.81
2023-05-27T09:13:59.737Z,101170.83
2023-05-27T09:16:28.660Z,101170.06
2023-05-27T09:18:59.289Z,101163.50
2023-05-27T09:21:28.770Z,101166.38
2023-05-27T09:24:01.170Z,101166.84
2023-05-27T09:26:36.362Z,101163.95
2023-05-27T09:29:11.259Z,101162.66
2023-05-27T09:31:43.118Z,101162.95
2023-05-27T09:34:18.193Z,101160.24
2023-05-27T09:36:51.616Z,101166.64
2023-05-27T09:39:24.958Z,101164.58
2023-05-27T09:42:01.037Z,101165.54
2023-05-27T09:44:33.203Z,101161.41
2023-05-27T09:47:05.901Z,101156.52
2023-05-27T09:49:37.023Z,101153.86
2023-05-27T09:52:11.274Z,101152.58
2023-05-27T09:54:40.761Z,101152.55
2023-05-27T09:57:16.149Z,101149.21
2023-05-27T09:59:47.981Z,101159.06
2023-05-27T10:02:20.647Z,101156.83
2023-05-27T10:04:50.933Z,101148.36
2023-05-27T10:07:31.272Z,101150.73
2023-05-27T10:10:02.887Z,101149.46
2023-05-27T10:12:32.719Z,101143.42
2023-05-27T10:15:02.552Z,101142.96
2023-05-27T10:17:51.673Z,101142.79
2023-05-27T10:20:33.527Z,101145.53
2023-05-27T10:23:32.673Z,101142.73
2023-05-27T10:26:09.042Z,101137.68
2023-05-27T10:28:42.760Z,101133.15
2023-05-27T10:31:14.744Z,101126.57
2023-05-27T10:33:50.960Z,101130.75
2023-05-27T10:36:25.513Z,101119.98
2023-05-27T10:38:58.902Z,101115.20
2023-05-27T10:41:28.833Z,101112.24
2023-05-27T10:44:01.487Z,101115.80
2023-05-27T10:46:43.154Z,101119.23
2023-05-27T10:49:16.787Z,101114.15
2023-05-27T10:51:45.763Z,101115.95
2023-05-27T10:56:52.436Z,101117.73
2023-05-27T10:59:26.624Z,101118.50
2023-05-27T11:01:56.127Z,101112.79
2023-05-27T11:04:24.998Z,101111.15
2023-05-27T11:07:04.790Z,101114.11
2023-05-27T11:09:46.409Z,101110.37
2023-05-27T11:12:25.415Z,101106.57
2023-05-27T11:14:56.790Z,101105.77
2023-05-27T11:17:27.167Z,101101.14
2023-05-27T11:19:56.681Z,101105.31
2023-05-27T11:22:29.210Z,101096.74
2023-05-27T11:24:59.047Z,101093.65
2023-05-27T11:27:39.330Z,101093.44
2023-05-27T11:30:14.950Z,101091.45
2023-05-27T11:32:48.120Z,101088.84
2023-05-27T11:35:19.168Z,101094.98
2023-05-27T11:37:52.553Z,101092.48
2023-05-27T11:40:22.034Z,101083.73
2023-05-27T11:42:51.455Z,101085.64
2023-05-27T11:45:21.729Z,101083.76
2023-05-27T11:47:55.384Z,101077.52
2023-05-27T11:50:25.877Z,101076.15
2023-05-27T11:52:59.461Z,101071.61
2023-05-27T11:55:28.189Z,101069.31
2023-05-27T11:57:57.475Z,101065.05
2023-05-27T12:00:26.596Z,101068.62
2023-05-27T12:02:55.794Z,101063.69
2023-05-27T12:05:33.991Z,101059.04
2023-05-27T12:08:05.129Z,101054.25
2023-05-27T12:10:34.130Z,101050.30
2023-05-27T12:13:07.698Z,101048.27
2023-05-27T12:15:36.797Z,101042.94
2023-05-27T12:18:06.980Z,101049.11
2023-05-27T12:20:35.952Z,101054.20
2023-05-27T12:23:04.729Z,101052.16
2023-05-27T12:25:33.617Z,101046.98
2023-05-27T12:28:02.516Z,101047.34
2023-05-27T12:30:31.514Z,101050.11
2023-05-27T12:33:01.257Z,101045.08
2023-05-27T12:35:30.322Z,101038.09
2023-05-27T12:37:59.718Z,101041.43
2023-05-27T12:40:28.793Z,101043.09
2023-05-27T12:42:57.597Z,101038.61
2023-05-27T12:45:27.389Z,101037.59
2023-05-27T12:47:56.537Z,101031.01
2023-05-27T12:50:25.286Z,101031.27
2023-05-27T12:52:54.589Z,101031.09
2023-05-27T12:55:24.287Z,101018.56
2023-05-27T12:57:54.057Z,101027.93
2023-05-27T13:00:23.460Z,101024.02
2023-05-27T13:02:52.719Z,101030.58
2023-05-27T13:05:21.781Z,101017.27
2023-05-27T13:08:06.464Z,101016.50
2023-05-27T13:10:36.487Z,101013.82
2023-05-27T13:13:06.724Z,101016.33
2023-05-27T13:15:36.628Z,101011.88
2023-05-27T13:18:08.153Z,101001.20
2023-05-27T13:20:37.634Z,101003.04
2023-05-27T13:23:07.384Z,101000.56
2023-05-27T13:25:36.164Z,100995.59
2023-05-27T13:28:05.367Z,100996.14
2023-05-27T13:30:34.567Z,100998.11
2023-05-27T13:33:03.976Z,100991.61
2023-05-27T13:35:33.169Z,100988.05
2023-05-27T13:38:02.405Z,100986.02
2023-05-27T13:40:31.128Z,100982.71
2023-05-27T13:42:59.915Z,100974.84
2023-05-27T13:45:28.851Z,100977.52
2023-05-27T13:47:58.270Z,100983.89
2023-05-27T13:50:27.431Z,100977.08
2023-05-27T13:52:56.754Z,100972.95
2023-05-27T13:55:25.698Z,100969.24
2023-05-27T13:57:54.730Z,100966.81
2023-05-27T14:00:25.241Z,100969.73
2023-05-27T14:02:55.626Z,100971.61
2023-05-27T14:05:24.647Z,100967.75
2023-05-27T14:07:54.048Z,100965.38
2023-05-27T14:10:22.937Z,100959.37
2023-05-27T14:12:51.636Z,100953.88
2023-05-27T14:15:20.580Z,100951.42
2023-05-27T14:17:49.469Z,100952.52
2023-05-27T14:20:18.744Z,100949.67
2023-05-27T14:22:48.319Z,100946.24
2023-05-27T14:25:18.647Z,100945.77
2023-05-27T14:27:47.375Z,100940.25
2023-05-27T14:30:17.465Z,100941.08
2023-05-27T14:32:47.009Z,100940.56
2023-05-27T14:35:16.046Z,100940.10
2023-05-27T14:37:44.865Z,100939.02
2023-05-27T14:40:13.840Z,100938.15
2023-05-27T14:42:42.636Z,100933.81
2023-05-27T14:45:12.016Z,100934.45
2023-05-27T14:47:40.825Z,100926.88
2023-05-27T14:50:10.213Z,100930.36
2023-05-27T14:52:38.802Z,100926.70
2023-05-27T14:55:08.759Z,100925.79
2023-05-27T14:57:37.518Z,100923.77
2023-05-27T15:00:08.962Z,100917.44
2023-05-27T15:02:38.352Z,100915.56
2023-05-27T15:05:09.097Z,100912.55
2023-05-27T15:07:39.318Z,100912.32
2023-05-27T15:10:08.772Z,100911.11
2023-05-27T15:12:42.993Z,100904.11
2023-05-27T15:15:13.343Z,100897.07
2023-05-27T15:17:45.714Z,100896.72
2023-05-27T15:20:16.703Z,100898.94
2023-05-27T15:22:47.014Z,100894.90
2023-05-27T15:25:16.300Z,100896.16
2023-05-27T15:27:45.082Z,100895.42
2023-05-27T15:30:14.152Z,100891.84
2023-05-27T15:32:42.991Z,100893.48
2023-05-27T15:35:11.966Z,100889.95
2023-05-27T15:37:40.852Z,100886.91
2023-05-27T15:40:10.133Z,100886.89
2023-05-27T15:42:39.030Z,100886.33
2023-05-27T15:45:08.481Z,100884.20
2023-05-27T15:47:37.247Z,100879.46
2023-05-27T15:50:07.359Z,100881.33
2023-05-27T15:52:36.141Z,100877.61
2023-05-27T15:55:06.159Z,100873.08
2023-05-27T15:57:35.660Z,100868.88
2023-05-27T16:00:05.156Z,100873.04
2023-05-27T16:02:40.740Z,100872.62
2023-05-27T16:05:14.715Z,100863.52
2023-05-27T16:07:44.879Z,100860.70
2023-05-27T16:10:13.643Z,100858.58
2023-05-27T16:12:43.441Z,100858.83
2023-05-27T16:15:13.993Z,100854.23
2023-05-27T16:17:43.915Z,100849.41
2023-05-27T16:20:13.550Z,100845.06
2023-05-27T16:22:43.417Z,100845.52
2023-05-27T16:25:12.096Z,100844.34
2023-05-27T16:27:41.077Z,100841.81
2023-05-27T16:30:10.582Z,100841.21
2023-05-27T16:32:39.323Z,100838.81
2023-05-27T16:35:09.001Z,100836.66
2023-05-27T16:37:39.519Z,100841.73
2023-05-27T16:40:09.833Z,100842.18
2023-05-27T16:42:38.853Z,100840.04
2023-05-27T16:45:09.414Z,100837.86
2023-05-27T16:47:38.478Z,100834.31
2023-05-27T16:50:08.274Z,100831.08
2023-05-27T16:52:37.263Z,100829.52
2023-05-27T16:55:08.098Z,100830.89
2023-05-27T16:57:37.017Z,100826.55
2023-05-27T17:00:07.775Z,100821.70
2023-05-27T17:02:37.067Z,100819.34
2023-05-27T17:05:08.696Z,100819.29
2023-05-27T17:07:38.492Z,100818.45
2023-05-27T17:10:09.009Z,100818.80
2023-05-27T17:12:38.105Z,100818.02
2023-05-27T17:15:07.725Z,100815.12
2023-05-27T17:17:36.579Z,100813.64
2023-05-27T17:20:08.420Z,100810.10
2023-05-27T17:22:38.074Z,100806.34
2023-05-27T17:25:09.171Z,100805.45
2023-05-27T17:27:38.117Z,100805.98
2023-05-27T17:30:07.986Z,100807.11
2023-05-27T17:32:36.691Z,100808.11
2023-05-27T17:35:06.801Z,100806.97
2023-05-27T17:37:36.032Z,100801.48
2023-05-27T17:40:09.238Z,100803.11
2023-05-27T17:42:38.609Z,100802.20
2023-05-27T17:45:09.165Z,100800.00
2023-05-27T17:47:38.579Z,100799.19
2023-05-27T17:50:08.812Z,100802.96
2023-05-27T17:52:38.085Z,100802.23
2023-05-27T17:55:08.263Z,100797.23
2023-05-27T17:57:37.594Z,100798.39
2023-05-27T18:00:14.177Z,100797.87
2023-05-27T18:02:46.190Z,100794.20
2023-05-27T18:05:16.291Z,100792.66
2023-05-27T18:07:45.750Z,100788.33
2023-05-27T18:10:18.159Z,100791.17
2023-05-27T18:12:46.995Z,100785.48
2023-05-27T18:15:17.192Z,100784.81
2023-05-27T18:17:46.590Z,100787.42
2023-05-27T18:20:17.379Z,100787.95
2023-05-27T18:22:46.290Z,100786.55
2023-05-27T18:25:15.781Z,100786.29
2023-05-27T18:27:44.858Z,100784.60
2023-05-27T18:30:15.597Z,100790.47
2023-05-27T18:32:49.688Z,100790.96
2023-05-27T18:37:51.797Z,100795.23
2023-05-27T18:40:24.125Z,100798.59
2023-05-27T18:42:53.776Z,100801.34
2023-05-27T18:46:00.039Z,100799.79
2023-05-27T18:48:31.975Z,100801.20
2023-05-27T18:51:01.154Z,100799.67
2023-05-27T18:53:31.221Z,100805.14
2023-05-27T18:56:00.037Z,100804.98
2023-05-27T18:58:29.418Z,100802.13
2023-05-27T19:00:58.423Z,100805.27
2023-05-27T19:03:27.384Z,100805.92
2023-05-27T19:05:56.175Z,100809.35
2023-05-27T19:08:25.100Z,100813.91
2023-05-27T19:10:54.355Z,100811.91
2023-05-27T19:13:23.887Z,100816.06
2023-05-27T19:15:53.122Z,100823.64
2023-05-27T19:18:22.396Z,100824.67
2023-05-27T19:20:51.378Z,100829.84
2023-05-27T19:23:20.462Z,100829.26
2023-05-27T19:25:49.877Z,100827.17
2023-05-27T19:28:19.072Z,100828.94
2023-05-27T19:30:48.382Z,100830.47
2023-05-27T19:33:17.889Z,100831.63
2023-05-27T19:35:48.401Z,100829.79
2023-05-27T19:38:17.810Z,100833.34
2023-05-27T19:40:46.700Z,100833.43
2023-05-27T19:43:16.088Z,100831.75
2023-05-27T19:45:44.998Z,100829.95
2023-05-27T19:48:15.560Z,100830.88
2023-05-27T19:50:45.844Z,100827.39
2023-05-27T19:53:15.853Z,100828.67
2023-05-27T19:55:47.076Z,100823.14
2023-05-27T19:58:17.013Z,100825.34
2023-05-27T20:00:45.959Z,100822.79
2023-05-27T20:03:14.913Z,100824.36
2023-05-27T20:05:44.420Z,100822.90
2023-05-27T20:08:13.293Z,100823.03
2023-05-27T20:10:42.171Z,100819.48
2023-05-27T20:13:11.283Z,100822.34
2023-05-27T20:15:39.959Z,100826.55
2023-05-27T20:18:08.795Z,100826.34
2023-05-27T20:20:38.178Z,100829.42
2023-05-27T20:23:07.140Z,100830.55
2023-05-27T20:25:36.456Z,100829.48
2023-05-27T20:28:05.557Z,100825.88
2023-05-27T20:30:34.370Z,100827.37
2023-05-27T20:33:03.545Z,100824.91
2023-05-27T20:35:32.830Z,100829.18
2023-05-27T20:38:01.706Z,100828.91
2023-05-27T20:40:30.714Z,100829.17
2023-05-27T20:42:59.514Z,100828.56
2023-05-27T20:45:28.513Z,100825.80
2023-05-27T20:47:57.223Z,100821.98
2023-05-27T20:50:27.516Z,100821.75
2023-05-27T20:52:56.620Z,100822.98
2023-05-27T20:55:25.409Z,100823.12
2023-05-27T20:57:54.278Z,100823.97
2023-05-27T21:00:23.169Z,100823.90
2023-05-27T21:02:52.841Z,100828.16
2023-05-27T21:05:21.866Z,100825.99
2023-05-27T21:07:51.748Z,100822.70
2023-05-27T21:10:20.358Z,100826.20
2023-05-27T21:12:49.253Z,100824.84
2023-05-27T21:15:18.588Z,100823.32
2023-05-27T21:17:48.030Z,100821.52
2023-05-27T21:20:16.972Z,100821.80
2023-05-27T21:22:46.279Z,100827.04
2023-05-27T21:25:15.878Z,100821.97
2023-05-27T21:27:44.868Z,100823.98
2023-05-27T21:30:15.190Z,100818.30
2023-05-27T21:32:44.053Z,100820.31
2023-05-27T21:35:13.190Z,100821.04
2023-05-27T21:37:42.156Z,100818.02
2023-05-27T21:40:11.413Z,100816.38
2023-05-27T21:42:40.155Z,100815.73
2023-05-27T21:45:09.754Z,100816.95
2023-05-27T21:47:38.666Z,100816.91
2023-05-27T21:50:08.049Z,100809.58
2023-05-27T21:52:36.941Z,100809.48
2023-05-27T21:55:06.561Z,100812.67
2023-05-27T21:57:35.637Z,100808.17
2023-05-27T22:00:14.137Z,100805.14
2023-05-27T22:02:43.165Z,100802.23
2023-05-27T22:05:14.602Z,100801.98
2023-05-27T22:07:44.020Z,100796.30
2023-05-27T22:10:14.234Z,100795.02
2023-05-27T22:12:42.800Z,100796.54
2023-05-27T22:15:12.129Z,100795.36
2023-05-27T22:17:42.030Z,100791.58
2023-05-27T22:20:12.177Z,100789.91
2023-05-27T22:22:41.439Z,100791.58
2023-05-27T22:25:10.417Z,100788.09
2023-05-27T22:27:39.216Z,100790.71
2023-05-27T22:30:11.420Z,100787.98
2023-05-27T22:32:40.326Z,100783.04
2023-05-27T22:35:09.901Z,100784.48
2023-05-27T22:37:38.672Z,100780.55
2023-05-27T22:40:08.434Z,100779.05
2023-05-27T22:42:37.372Z,100780.27
2023-05-27T22:45:06.909Z,100776.56
2023-05-27T22:47:37.747Z,100772.71
2023-05-27T22:50:08.479Z,100767.81
2023-05-27T22:52:37.234Z,100763.20
2023-05-27T22:55:06.639Z,100760.08
2023-05-27T22:57:35.644Z,100762.87
2023-05-27T23:00:07.238Z,100761.30
2023-05-27T23:02:35.930Z,100763.96
2023-05-27T23:05:05.789Z,100761.65
2023-05-27T23:07:34.476Z,100761.27
2023-05-27T23:10:03.883Z,100760.92
2023-05-27T23:12:32.686Z,100758.65
2023-05-27T23:15:01.757Z,100757.24
2023-05-27T23:17:30.695Z,100756.21
2023-05-27T23:19:59.585Z,100753.30
2023-05-27T23:22:30.317Z,100754.89
2023-05-27T23:25:00.226Z,100751.66
2023-05-27T23:27:29.605Z,100746.88
2023-05-27T23:29:58.497Z,100748.66
2023-05-27T23:32:27.295Z,100748.00
2023-05-27T23:34:56.183Z,100745.63
2023-05-27T23:37:25.147Z,100742.09
2023-05-27T23:39:53.956Z,100737.85
2023-05-27T23:42:22.858Z,100735.79
2023-05-27T23:44:52.856Z,100735.87
2023-05-27T23:47:21.566Z,100734.98
2023-05-27T23:49:50.317Z,100732.50
2023-05-27T23:52:19.110Z,100732.86
2023-05-27T23:54:48.845Z,100731.94
2023-05-27T23:57:18.436Z,100726.24
